GLO2034 SBGL-SBEG
Flight info
| Callsign | GLO2034 |
|---|---|
| Flight time | 3h 31m |
| Altitude | 34000 |
| Route | BBC UM409 MAMGI |
| Aircraft | B738/M-DGVW/C |
Departure
| Time | 2026-04-27 04:17 |
|---|---|
| Airport | Rio Galeão – Tom Jobim International Airport (SBGL) |
Arrival
| Time | 2026-04-27 07:48 |
|---|---|
| Airport | Eduardo Gomes International Airport (SBEG) |
| Time | Latitude | Longitude | Altitude | Speed | Heading |
|---|---|---|---|---|---|
| 2026-04-27 03:43 | -22.81616 | -43.24634 | 26 ft | 0 kts | 11° |
| 2026-04-27 04:07 | -22.81625 | -43.24636 | 26 ft | 4 kts | 12° |
| 2026-04-27 04:07 | -22.81651 | -43.24642 | 25 ft | 3 kts | 12° |
| 2026-04-27 04:08 | -22.81676 | -43.24643 | 27 ft | 4 kts | 341° |
| 2026-04-27 04:08 | -22.81698 | -43.24628 | 25 ft | 4 kts | 309° |
| 2026-04-27 04:08 | -22.81701 | -43.24623 | 27 ft | 0 kts | 306° |
| 2026-04-27 04:11 | -22.81693 | -43.24635 | 26 ft | 5 kts | 306° |
| 2026-04-27 04:11 | -22.81657 | -43.24693 | 26 ft | 14 kts | 303° |
| 2026-04-27 04:12 | -22.81590 | -43.24800 | 26 ft | 20 kts | 304° |
| 2026-04-27 04:12 | -22.81494 | -43.24932 | 25 ft | 23 kts | 301° |
| 2026-04-27 04:12 | -22.81414 | -43.25080 | 26 ft | 18 kts | 302° |
| 2026-04-27 04:12 | -22.81329 | -43.25182 | 25 ft | 19 kts | 309° |
| 2026-04-27 04:13 | -22.81248 | -43.25301 | 24 ft | 20 kts | 315° |
| 2026-04-27 04:13 | -22.81142 | -43.25371 | 26 ft | 18 kts | 345° |
| 2026-04-27 04:13 | -22.81019 | -43.25386 | 24 ft | 18 kts | 7° |
| 2026-04-27 04:13 | -22.80947 | -43.25426 | 26 ft | 12 kts | 298° |
| 2026-04-27 04:14 | -22.80906 | -43.25522 | 30 ft | 19 kts | 296° |
| 2026-04-27 04:14 | -22.80827 | -43.25666 | 28 ft | 20 kts | 312° |
| 2026-04-27 04:14 | -22.80735 | -43.25660 | 31 ft | 17 kts | 34° |
| 2026-04-27 04:14 | -22.80610 | -43.25562 | 32 ft | 27 kts | 37° |
| 2026-04-27 04:15 | -22.80479 | -43.25448 | 32 ft | 20 kts | 44° |
| 2026-04-27 04:15 | -22.80363 | -43.25475 | 31 ft | 19 kts | 326° |
| 2026-04-27 04:15 | -22.80284 | -43.25509 | 28 ft | 11 kts | 0° |
| 2026-04-27 04:15 | -22.80204 | -43.25482 | 27 ft | 11 kts | 23° |
| 2026-04-27 04:16 | -22.80175 | -43.25451 | 27 ft | 5 kts | 68° |
| 2026-04-27 04:16 | -22.80159 | -43.25395 | 28 ft | 19 kts | 75° |
| 2026-04-27 04:16 | -22.80046 | -43.24973 | 30 ft | 97 kts | 73° |
| 2026-04-27 04:16 | -22.79807 | -43.24044 | 30 ft | 161 kts | 74° |
| 2026-04-27 04:17 | -22.79476 | -43.22702 | 198 ft | 199 kts | 74° |
| 2026-04-27 04:17 | -22.79131 | -43.21172 | 865 ft | 214 kts | 75° |
| 2026-04-27 04:17 | -22.78777 | -43.19579 | 1557 ft | 228 kts | 74° |
| 2026-04-27 04:17 | -22.78388 | -43.17830 | 1998 ft | 248 kts | 75° |
| 2026-04-27 04:18 | -22.77983 | -43.15966 | 2623 ft | 259 kts | 75° |
| 2026-04-27 04:18 | -22.77566 | -43.14044 | 3162 ft | 265 kts | 72° |
| 2026-04-27 04:18 | -22.76719 | -43.12292 | 3664 ft | 263 kts | 46° |
| 2026-04-27 04:18 | -22.75263 | -43.11131 | 4170 ft | 261 kts | 20° |
| 2026-04-27 04:19 | -22.73493 | -43.10756 | 4724 ft | 261 kts | 356° |
| 2026-04-27 04:19 | -22.71738 | -43.11193 | 5217 ft | 261 kts | 332° |
| 2026-04-27 04:19 | -22.70231 | -43.12275 | 5763 ft | 261 kts | 323° |
| 2026-04-27 04:19 | -22.68762 | -43.13451 | 6213 ft | 264 kts | 322° |
| 2026-04-27 04:20 | -22.67299 | -43.14657 | 6693 ft | 266 kts | 322° |
| 2026-04-27 04:20 | -22.65829 | -43.15892 | 7189 ft | 269 kts | 321° |
| 2026-04-27 04:20 | -22.64344 | -43.17151 | 7675 ft | 273 kts | 321° |
| 2026-04-27 04:20 | -22.62849 | -43.18429 | 8176 ft | 275 kts | 320° |
| 2026-04-27 04:21 | -22.61335 | -43.19729 | 8682 ft | 280 kts | 320° |
| 2026-04-27 04:21 | -22.59801 | -43.21051 | 9177 ft | 283 kts | 320° |
| 2026-04-27 04:21 | -22.58250 | -43.22386 | 9726 ft | 287 kts | 320° |
| 2026-04-27 04:21 | -22.56676 | -43.23744 | 10054 ft | 292 kts | 320° |
| 2026-04-27 04:22 | -22.55098 | -43.25102 | 10129 ft | 291 kts | 319° |
| 2026-04-27 04:22 | -22.53489 | -43.26411 | 10134 ft | 291 kts | 329° |
| 2026-04-27 04:22 | -22.51585 | -43.27269 | 10341 ft | 304 kts | 338° |
| 2026-04-27 04:22 | -22.49543 | -43.28097 | 10743 ft | 323 kts | 338° |
| 2026-04-27 04:23 | -22.47385 | -43.28964 | 11154 ft | 338 kts | 338° |
| 2026-04-27 04:23 | -22.45152 | -43.29856 | 11834 ft | 343 kts | 338° |
| 2026-04-27 04:23 | -22.42909 | -43.30748 | 12603 ft | 346 kts | 338° |
| 2026-04-27 04:23 | -22.40631 | -43.31653 | 13292 ft | 350 kts | 337° |
| 2026-04-27 04:24 | -22.38339 | -43.32562 | 13983 ft | 352 kts | 338° |
| 2026-04-27 04:24 | -22.36029 | -43.33477 | 14578 ft | 356 kts | 337° |
| 2026-04-27 04:24 | -22.33694 | -43.34402 | 15197 ft | 358 kts | 337° |
| 2026-04-27 04:24 | -22.31343 | -43.35332 | 15787 ft | 361 kts | 337° |
| 2026-04-27 04:25 | -22.28977 | -43.36268 | 16371 ft | 364 kts | 337° |
| 2026-04-27 04:25 | -22.26586 | -43.37214 | 16948 ft | 367 kts | 337° |
| 2026-04-27 04:25 | -22.24185 | -43.38163 | 17505 ft | 370 kts | 337° |
| 2026-04-27 04:25 | -22.21791 | -43.39109 | 18031 ft | 372 kts | 337° |
| 2026-04-27 04:26 | -22.19356 | -43.40071 | 18500 ft | 375 kts | 337° |
| 2026-04-27 04:26 | -22.16890 | -43.41045 | 18941 ft | 377 kts | 337° |
| 2026-04-27 04:26 | -22.14421 | -43.42019 | 19382 ft | 379 kts | 337° |
| 2026-04-27 04:26 | -22.11940 | -43.42998 | 19809 ft | 381 kts | 337° |
| 2026-04-27 04:27 | -22.09441 | -43.43983 | 20222 ft | 383 kts | 337° |
| 2026-04-27 04:27 | -22.06933 | -43.44972 | 20651 ft | 385 kts | 337° |
| 2026-04-27 04:27 | -22.04412 | -43.45966 | 21061 ft | 387 kts | 337° |
| 2026-04-27 04:27 | -22.01874 | -43.46966 | 21452 ft | 389 kts | 337° |
| 2026-04-27 04:28 | -21.99325 | -43.47970 | 21840 ft | 391 kts | 337° |
| 2026-04-27 04:28 | -21.96762 | -43.48979 | 22243 ft | 393 kts | 337° |
| 2026-04-27 04:28 | -21.94188 | -43.49992 | 22600 ft | 396 kts | 337° |
| 2026-04-27 04:28 | -21.92430 | -43.50683 | 22884 ft | 397 kts | 337° |
| 2026-04-27 04:29 | -21.89867 | -43.51691 | 23278 ft | 399 kts | 337° |
| 2026-04-27 04:29 | -21.87251 | -43.52720 | 23629 ft | 401 kts | 337° |
| 2026-04-27 04:29 | -21.84632 | -43.53749 | 23937 ft | 403 kts | 337° |
| 2026-04-27 04:29 | -21.81978 | -43.54792 | 24215 ft | 406 kts | 337° |
| 2026-04-27 04:30 | -21.79324 | -43.55834 | 24546 ft | 408 kts | 337° |
| 2026-04-27 04:30 | -21.76648 | -43.56884 | 24847 ft | 410 kts | 337° |
| 2026-04-27 04:30 | -21.73963 | -43.57938 | 25152 ft | 412 kts | 337° |
| 2026-04-27 04:30 | -21.71269 | -43.58994 | 25462 ft | 414 kts | 337° |
| 2026-04-27 04:31 | -21.68561 | -43.60056 | 25764 ft | 416 kts | 337° |
| 2026-04-27 04:31 | -21.65837 | -43.61123 | 26064 ft | 417 kts | 337° |
| 2026-04-27 04:31 | -21.63101 | -43.62195 | 26360 ft | 420 kts | 337° |
| 2026-04-27 04:31 | -21.60352 | -43.63272 | 26658 ft | 422 kts | 337° |
| 2026-04-27 04:32 | -21.57587 | -43.64354 | 26960 ft | 424 kts | 337° |
| 2026-04-27 04:32 | -21.54811 | -43.65440 | 27235 ft | 427 kts | 337° |
| 2026-04-27 04:32 | -21.52047 | -43.66521 | 27536 ft | 428 kts | 337° |
| 2026-04-27 04:32 | -21.49205 | -43.67632 | 27864 ft | 430 kts | 337° |
| 2026-04-27 04:33 | -21.46390 | -43.68732 | 28160 ft | 432 kts | 337° |
| 2026-04-27 04:33 | -21.43592 | -43.69825 | 28453 ft | 434 kts | 337° |
| 2026-04-27 04:33 | -21.40748 | -43.70935 | 28751 ft | 436 kts | 337° |
| 2026-04-27 04:33 | -21.37891 | -43.72051 | 29048 ft | 438 kts | 337° |
| 2026-04-27 04:34 | -21.35025 | -43.73169 | 29343 ft | 440 kts | 337° |
| 2026-04-27 04:34 | -21.32140 | -43.74294 | 29609 ft | 442 kts | 337° |
| 2026-04-27 04:34 | -21.29247 | -43.75423 | 29875 ft | 443 kts | 336° |
| 2026-04-27 04:34 | -21.26499 | -43.76889 | 30106 ft | 440 kts | 321° |
| 2026-04-27 04:35 | -21.24149 | -43.78966 | 30335 ft | 440 kts | 317° |
| 2026-04-27 04:35 | -21.21818 | -43.81113 | 30491 ft | 442 kts | 317° |
| 2026-04-27 04:35 | -21.19496 | -43.83281 | 30733 ft | 443 kts | 316° |
| 2026-04-27 04:35 | -21.17180 | -43.85464 | 30929 ft | 445 kts | 316° |
| 2026-04-27 04:36 | -21.14857 | -43.87663 | 31134 ft | 446 kts | 316° |
| 2026-04-27 04:36 | -21.12533 | -43.89866 | 31328 ft | 448 kts | 316° |
| 2026-04-27 04:36 | -21.10199 | -43.92078 | 31512 ft | 449 kts | 316° |
| 2026-04-27 04:36 | -21.07854 | -43.94300 | 31636 ft | 451 kts | 316° |
| 2026-04-27 04:37 | -21.05501 | -43.96528 | 31849 ft | 452 kts | 316° |
| 2026-04-27 04:37 | -21.03148 | -43.98756 | 32121 ft | 452 kts | 316° |
| 2026-04-27 04:37 | -21.00791 | -44.00985 | 32402 ft | 451 kts | 316° |
| 2026-04-27 04:37 | -20.98442 | -44.03207 | 32698 ft | 450 kts | 316° |
| 2026-04-27 04:38 | -20.96101 | -44.05420 | 32941 ft | 451 kts | 317° |
| 2026-04-27 04:38 | -20.93745 | -44.07646 | 33194 ft | 451 kts | 317° |
| 2026-04-27 04:38 | -20.91400 | -44.09861 | 33468 ft | 450 kts | 317° |
| 2026-04-27 04:38 | -20.89050 | -44.12080 | 33754 ft | 449 kts | 317° |
| 2026-04-27 04:39 | -20.86709 | -44.14289 | 33995 ft | 450 kts | 317° |
| 2026-04-27 04:39 | -20.84357 | -44.16508 | 34028 ft | 453 kts | 317° |
| 2026-04-27 04:39 | -20.79600 | -44.20993 | 34023 ft | 457 kts | 317° |
| 2026-04-27 04:40 | -20.74829 | -44.25485 | 34020 ft | 457 kts | 317° |
| 2026-04-27 04:40 | -20.70070 | -44.29964 | 34024 ft | 457 kts | 317° |
| 2026-04-27 04:41 | -20.65303 | -44.34446 | 34025 ft | 456 kts | 317° |
| 2026-04-27 04:41 | -20.60531 | -44.38929 | 34022 ft | 457 kts | 317° |
| 2026-04-27 04:42 | -20.55778 | -44.43391 | 34023 ft | 458 kts | 317° |
| 2026-04-27 04:42 | -20.51004 | -44.47868 | 34022 ft | 458 kts | 317° |
| 2026-04-27 04:43 | -20.46213 | -44.52357 | 34021 ft | 458 kts | 317° |
| 2026-04-27 04:43 | -20.41430 | -44.56835 | 34014 ft | 458 kts | 317° |
| 2026-04-27 04:44 | -20.36644 | -44.61310 | 34016 ft | 457 kts | 317° |
| 2026-04-27 04:44 | -20.31863 | -44.65779 | 34013 ft | 457 kts | 317° |
| 2026-04-27 04:45 | -20.27082 | -44.70243 | 34005 ft | 457 kts | 317° |
| 2026-04-27 04:45 | -20.22292 | -44.74712 | 34012 ft | 458 kts | 317° |
| 2026-04-27 04:46 | -20.17496 | -44.79183 | 34014 ft | 458 kts | 317° |
| 2026-04-27 04:46 | -20.12700 | -44.83649 | 34007 ft | 458 kts | 318° |
| 2026-04-27 04:47 | -20.07908 | -44.88109 | 34005 ft | 458 kts | 318° |
| 2026-04-27 04:47 | -20.03113 | -44.92568 | 34008 ft | 458 kts | 318° |
| 2026-04-27 04:48 | -19.98324 | -44.97017 | 34002 ft | 457 kts | 318° |
| 2026-04-27 04:48 | -19.93527 | -45.01469 | 34005 ft | 458 kts | 318° |
| 2026-04-27 04:49 | -19.88727 | -45.05921 | 34007 ft | 458 kts | 318° |
| 2026-04-27 04:49 | -19.83929 | -45.10367 | 34003 ft | 458 kts | 318° |
| 2026-04-27 04:50 | -19.79155 | -45.14788 | 34002 ft | 458 kts | 318° |
| 2026-04-27 04:50 | -19.74354 | -45.19230 | 33995 ft | 459 kts | 318° |
| 2026-04-27 04:51 | -19.69540 | -45.23679 | 33993 ft | 459 kts | 319° |
| 2026-04-27 04:51 | -19.64725 | -45.28126 | 33993 ft | 459 kts | 319° |
| 2026-04-27 04:52 | -19.59915 | -45.32566 | 33991 ft | 459 kts | 319° |
| 2026-04-27 04:52 | -19.55094 | -45.37011 | 33989 ft | 460 kts | 319° |
| 2026-04-27 04:53 | -19.50262 | -45.41463 | 33991 ft | 459 kts | 319° |
| 2026-04-27 04:53 | -19.45445 | -45.45897 | 33989 ft | 459 kts | 319° |
| 2026-04-27 04:54 | -19.40621 | -45.50334 | 33987 ft | 459 kts | 319° |
| 2026-04-27 04:54 | -19.35793 | -45.54771 | 33988 ft | 461 kts | 319° |
| 2026-04-27 04:55 | -19.30977 | -45.59194 | 33992 ft | 461 kts | 319° |
| 2026-04-27 04:55 | -19.26149 | -45.63624 | 33994 ft | 459 kts | 319° |
| 2026-04-27 04:56 | -19.21314 | -45.68057 | 33993 ft | 460 kts | 319° |
| 2026-04-27 04:56 | -19.16478 | -45.72487 | 33990 ft | 461 kts | 319° |
| 2026-04-27 04:57 | -19.11623 | -45.76931 | 33996 ft | 462 kts | 319° |
| 2026-04-27 04:57 | -19.06777 | -45.81364 | 34005 ft | 460 kts | 319° |
| 2026-04-27 04:58 | -19.01930 | -45.85793 | 34006 ft | 460 kts | 319° |
| 2026-04-27 04:58 | -18.97082 | -45.90220 | 34006 ft | 462 kts | 320° |
| 2026-04-27 04:59 | -18.92215 | -45.94661 | 34006 ft | 462 kts | 320° |
| 2026-04-27 04:59 | -18.87358 | -45.99089 | 34005 ft | 461 kts | 320° |
| 2026-04-27 05:00 | -18.82510 | -46.03506 | 34007 ft | 460 kts | 320° |
| 2026-04-27 05:00 | -18.77655 | -46.07925 | 34005 ft | 461 kts | 320° |
| 2026-04-27 05:01 | -18.72806 | -46.12335 | 34006 ft | 461 kts | 320° |
| 2026-04-27 05:01 | -18.67948 | -46.16750 | 34007 ft | 460 kts | 320° |
| 2026-04-27 05:02 | -18.63130 | -46.21125 | 34005 ft | 460 kts | 319° |
| 2026-04-27 05:03 | -18.55839 | -46.27739 | 34009 ft | 462 kts | 320° |
| 2026-04-27 05:03 | -18.50972 | -46.32151 | 34005 ft | 462 kts | 320° |
| 2026-04-27 05:04 | -18.46098 | -46.36565 | 33996 ft | 462 kts | 320° |
| 2026-04-27 05:04 | -18.41225 | -46.40974 | 33996 ft | 462 kts | 320° |
| 2026-04-27 05:05 | -18.36343 | -46.45389 | 33999 ft | 463 kts | 320° |
| 2026-04-27 05:05 | -18.31455 | -46.49805 | 33994 ft | 463 kts | 320° |
| 2026-04-27 05:06 | -18.26568 | -46.54218 | 33988 ft | 463 kts | 320° |
| 2026-04-27 05:06 | -18.21679 | -46.58629 | 33981 ft | 463 kts | 320° |
| 2026-04-27 05:07 | -18.16784 | -46.63041 | 33992 ft | 464 kts | 320° |
| 2026-04-27 05:07 | -18.11884 | -46.67454 | 33991 ft | 464 kts | 320° |
| 2026-04-27 05:08 | -18.06986 | -46.71863 | 33988 ft | 464 kts | 320° |
| 2026-04-27 05:08 | -18.02085 | -46.76271 | 33976 ft | 464 kts | 320° |
| 2026-04-27 05:09 | -17.97182 | -46.80677 | 33981 ft | 465 kts | 320° |
| 2026-04-27 05:09 | -17.92267 | -46.85090 | 33984 ft | 464 kts | 320° |
| 2026-04-27 05:10 | -17.87386 | -46.89470 | 33975 ft | 465 kts | 320° |
| 2026-04-27 05:10 | -17.82471 | -46.93877 | 33976 ft | 465 kts | 320° |
| 2026-04-27 05:11 | -17.77554 | -46.98282 | 33993 ft | 465 kts | 320° |
| 2026-04-27 05:11 | -17.72641 | -47.02681 | 33973 ft | 464 kts | 320° |
| 2026-04-27 05:12 | -17.67733 | -47.07072 | 33983 ft | 464 kts | 320° |
| 2026-04-27 05:12 | -17.62820 | -47.11464 | 33982 ft | 464 kts | 320° |
| 2026-04-27 05:13 | -17.57901 | -47.15858 | 33985 ft | 465 kts | 320° |
| 2026-04-27 05:13 | -17.52978 | -47.20253 | 33984 ft | 464 kts | 320° |
| 2026-04-27 05:14 | -17.48071 | -47.24630 | 33981 ft | 464 kts | 320° |
| 2026-04-27 05:14 | -17.43159 | -47.29008 | 33979 ft | 463 kts | 320° |
| 2026-04-27 05:15 | -17.38243 | -47.33387 | 33977 ft | 465 kts | 320° |
| 2026-04-27 05:15 | -17.33315 | -47.37773 | 33981 ft | 465 kts | 320° |
| 2026-04-27 05:16 | -17.28391 | -47.42152 | 33981 ft | 464 kts | 320° |
| 2026-04-27 05:16 | -17.23482 | -47.46515 | 33985 ft | 464 kts | 320° |
| 2026-04-27 05:17 | -17.18559 | -47.50887 | 33983 ft | 464 kts | 321° |
| 2026-04-27 05:17 | -17.13670 | -47.55226 | 33981 ft | 465 kts | 321° |
| 2026-04-27 05:18 | -17.08744 | -47.59594 | 33983 ft | 464 kts | 321° |
| 2026-04-27 05:18 | -17.03816 | -47.63961 | 33976 ft | 464 kts | 321° |
| 2026-04-27 05:19 | -16.98900 | -47.68314 | 33973 ft | 464 kts | 321° |
| 2026-04-27 05:19 | -16.93977 | -47.72671 | 33975 ft | 464 kts | 321° |
| 2026-04-27 05:20 | -16.89049 | -47.77029 | 33971 ft | 464 kts | 321° |
| 2026-04-27 05:20 | -16.84124 | -47.81380 | 33977 ft | 464 kts | 321° |
| 2026-04-27 05:21 | -16.80031 | -47.84995 | 33975 ft | 463 kts | 321° |
| 2026-04-27 05:21 | -16.75112 | -47.89336 | 33969 ft | 463 kts | 321° |
| 2026-04-27 05:22 | -16.70186 | -47.93680 | 33969 ft | 463 kts | 321° |
| 2026-04-27 05:22 | -16.65268 | -47.98014 | 33969 ft | 463 kts | 321° |
| 2026-04-27 05:23 | -16.60342 | -48.02352 | 33972 ft | 463 kts | 321° |
| 2026-04-27 05:23 | -16.55421 | -48.06683 | 33967 ft | 463 kts | 321° |
| 2026-04-27 05:24 | -16.50491 | -48.11019 | 33967 ft | 464 kts | 321° |
| 2026-04-27 05:24 | -16.45552 | -48.15360 | 33972 ft | 464 kts | 321° |
| 2026-04-27 05:25 | -16.40616 | -48.19694 | 33976 ft | 464 kts | 321° |
| 2026-04-27 05:25 | -16.35675 | -48.24031 | 33980 ft | 464 kts | 321° |
| 2026-04-27 05:26 | -16.30743 | -48.28357 | 33971 ft | 464 kts | 321° |
| 2026-04-27 05:26 | -16.25833 | -48.32659 | 33975 ft | 464 kts | 321° |
| 2026-04-27 05:27 | -16.20895 | -48.36984 | 33978 ft | 464 kts | 321° |
| 2026-04-27 05:27 | -16.15950 | -48.41312 | 33981 ft | 464 kts | 321° |
| 2026-04-27 05:28 | -16.11010 | -48.45633 | 33972 ft | 465 kts | 321° |
| 2026-04-27 05:28 | -16.06062 | -48.49958 | 33977 ft | 465 kts | 321° |
| 2026-04-27 05:29 | -16.01111 | -48.54283 | 33980 ft | 465 kts | 321° |
| 2026-04-27 05:29 | -15.96162 | -48.58602 | 33975 ft | 464 kts | 321° |
| 2026-04-27 05:30 | -15.91211 | -48.62921 | 33980 ft | 465 kts | 321° |
| 2026-04-27 05:30 | -15.86256 | -48.67241 | 33975 ft | 465 kts | 321° |
| 2026-04-27 05:31 | -15.81297 | -48.71561 | 33968 ft | 465 kts | 321° |
| 2026-04-27 05:31 | -15.76345 | -48.75872 | 33966 ft | 465 kts | 321° |
| 2026-04-27 05:32 | -15.71387 | -48.80185 | 33970 ft | 465 kts | 321° |
| 2026-04-27 05:32 | -15.66426 | -48.84498 | 33963 ft | 466 kts | 322° |
| 2026-04-27 05:33 | -15.61451 | -48.88821 | 33965 ft | 466 kts | 322° |
| 2026-04-27 05:33 | -15.56479 | -48.93138 | 33958 ft | 467 kts | 322° |
| 2026-04-27 05:34 | -15.51499 | -48.97459 | 33953 ft | 466 kts | 322° |
| 2026-04-27 05:34 | -15.46522 | -49.01775 | 33953 ft | 466 kts | 322° |
| 2026-04-27 05:35 | -15.41564 | -49.06071 | 33949 ft | 468 kts | 322° |
| 2026-04-27 05:35 | -15.36568 | -49.10398 | 33950 ft | 467 kts | 322° |
| 2026-04-27 05:36 | -15.31586 | -49.14710 | 33944 ft | 467 kts | 322° |
| 2026-04-27 05:36 | -15.26601 | -49.19022 | 33940 ft | 467 kts | 322° |
| 2026-04-27 05:37 | -15.21610 | -49.23335 | 33933 ft | 468 kts | 322° |
| 2026-04-27 05:37 | -15.16595 | -49.27668 | 33935 ft | 469 kts | 322° |
| 2026-04-27 05:38 | -15.11584 | -49.31994 | 33934 ft | 469 kts | 322° |
| 2026-04-27 05:38 | -15.06581 | -49.36310 | 33935 ft | 468 kts | 322° |
| 2026-04-27 05:39 | -15.01577 | -49.40624 | 33933 ft | 468 kts | 322° |
| 2026-04-27 05:39 | -14.96559 | -49.44947 | 33932 ft | 470 kts | 322° |
| 2026-04-27 05:40 | -14.91538 | -49.49271 | 33931 ft | 470 kts | 322° |
| 2026-04-27 05:40 | -14.86511 | -49.53597 | 33927 ft | 470 kts | 322° |
| 2026-04-27 05:41 | -14.81497 | -49.57909 | 33926 ft | 469 kts | 322° |
| 2026-04-27 05:41 | -14.76483 | -49.62218 | 33919 ft | 469 kts | 322° |
| 2026-04-27 05:42 | -14.71454 | -49.66538 | 33917 ft | 470 kts | 322° |
| 2026-04-27 05:42 | -14.66427 | -49.70853 | 33907 ft | 470 kts | 322° |
| 2026-04-27 05:43 | -14.61429 | -49.75140 | 33916 ft | 470 kts | 322° |
| 2026-04-27 05:43 | -14.56407 | -49.79446 | 33904 ft | 469 kts | 322° |
| 2026-04-27 05:44 | -14.51385 | -49.83749 | 33906 ft | 469 kts | 322° |
| 2026-04-27 05:44 | -14.46359 | -49.88052 | 33900 ft | 469 kts | 322° |
| 2026-04-27 05:45 | -14.41334 | -49.92353 | 33902 ft | 469 kts | 322° |
| 2026-04-27 05:45 | -14.36309 | -49.96650 | 33901 ft | 469 kts | 322° |
| 2026-04-27 05:46 | -14.31289 | -50.00942 | 33898 ft | 469 kts | 322° |
| 2026-04-27 05:46 | -14.26264 | -50.05234 | 33900 ft | 469 kts | 322° |
| 2026-04-27 05:47 | -14.21237 | -50.09525 | 33898 ft | 469 kts | 322° |
| 2026-04-27 05:47 | -14.16205 | -50.13819 | 33903 ft | 469 kts | 322° |
| 2026-04-27 05:48 | -14.11179 | -50.18104 | 33895 ft | 469 kts | 322° |
| 2026-04-27 05:48 | -14.06147 | -50.22392 | 33898 ft | 469 kts | 322° |
| 2026-04-27 05:49 | -14.01116 | -50.26677 | 33899 ft | 469 kts | 322° |
| 2026-04-27 05:49 | -13.96080 | -50.30964 | 33901 ft | 469 kts | 322° |
| 2026-04-27 05:50 | -13.91049 | -50.35244 | 33902 ft | 469 kts | 322° |
| 2026-04-27 05:50 | -13.86014 | -50.39525 | 33899 ft | 469 kts | 322° |
| 2026-04-27 05:51 | -13.80977 | -50.43804 | 33897 ft | 470 kts | 322° |
| 2026-04-27 05:51 | -13.75937 | -50.48084 | 33904 ft | 470 kts | 322° |
| 2026-04-27 05:52 | -13.70930 | -50.52334 | 33905 ft | 470 kts | 322° |
| 2026-04-27 05:52 | -13.65892 | -50.56607 | 33904 ft | 470 kts | 322° |
| 2026-04-27 05:53 | -13.60852 | -50.60880 | 33898 ft | 469 kts | 322° |
| 2026-04-27 05:53 | -13.55808 | -50.65153 | 33902 ft | 470 kts | 322° |
| 2026-04-27 05:54 | -13.50769 | -50.69420 | 33904 ft | 469 kts | 322° |
| 2026-04-27 05:54 | -13.45732 | -50.73683 | 33906 ft | 469 kts | 322° |
| 2026-04-27 05:55 | -13.40694 | -50.77944 | 33903 ft | 469 kts | 322° |
| 2026-04-27 05:55 | -13.35652 | -50.82207 | 33907 ft | 469 kts | 322° |
| 2026-04-27 05:56 | -13.30607 | -50.86469 | 33912 ft | 470 kts | 322° |
| 2026-04-27 05:56 | -13.25561 | -50.90730 | 33908 ft | 469 kts | 322° |
| 2026-04-27 05:57 | -13.20521 | -50.94983 | 33903 ft | 469 kts | 322° |
| 2026-04-27 05:57 | -13.15488 | -50.99229 | 33905 ft | 469 kts | 322° |
| 2026-04-27 05:58 | -13.10453 | -51.03473 | 33908 ft | 469 kts | 322° |
| 2026-04-27 05:58 | -13.05441 | -51.07696 | 33907 ft | 469 kts | 322° |
| 2026-04-27 05:59 | -13.00404 | -51.11937 | 33905 ft | 469 kts | 322° |
| 2026-04-27 05:59 | -12.95362 | -51.16181 | 33909 ft | 469 kts | 322° |
| 2026-04-27 06:00 | -12.87795 | -51.22545 | 33910 ft | 469 kts | 322° |
| 2026-04-27 06:00 | -12.82753 | -51.26784 | 33908 ft | 469 kts | 322° |
| 2026-04-27 06:01 | -12.77701 | -51.31027 | 33912 ft | 470 kts | 322° |
| 2026-04-27 06:01 | -12.72646 | -51.35273 | 33912 ft | 470 kts | 322° |
| 2026-04-27 06:02 | -12.67592 | -51.39512 | 33913 ft | 469 kts | 322° |
| 2026-04-27 06:02 | -12.62548 | -51.43743 | 33909 ft | 468 kts | 322° |
| 2026-04-27 06:03 | -12.57498 | -51.47976 | 33916 ft | 469 kts | 322° |
| 2026-04-27 06:03 | -12.52452 | -51.52205 | 33915 ft | 469 kts | 322° |
| 2026-04-27 06:04 | -12.47403 | -51.56432 | 33920 ft | 470 kts | 322° |
| 2026-04-27 06:04 | -12.42345 | -51.60665 | 33916 ft | 469 kts | 322° |
| 2026-04-27 06:05 | -12.37292 | -51.64893 | 33921 ft | 470 kts | 321° |
| 2026-04-27 06:05 | -12.32232 | -51.69122 | 33915 ft | 469 kts | 322° |
| 2026-04-27 06:06 | -12.27172 | -51.73352 | 33920 ft | 470 kts | 322° |
| 2026-04-27 06:06 | -12.22155 | -51.77542 | 33918 ft | 469 kts | 322° |
| 2026-04-27 06:07 | -12.17106 | -51.81757 | 33922 ft | 470 kts | 322° |
| 2026-04-27 06:07 | -12.12034 | -51.85988 | 33920 ft | 470 kts | 322° |
| 2026-04-27 06:08 | -12.06959 | -51.90220 | 33920 ft | 471 kts | 322° |
| 2026-04-27 06:08 | -12.01889 | -51.94447 | 33917 ft | 470 kts | 322° |
| 2026-04-27 06:09 | -11.96815 | -51.98674 | 33921 ft | 471 kts | 322° |
| 2026-04-27 06:09 | -11.91746 | -52.02895 | 33915 ft | 470 kts | 322° |
| 2026-04-27 06:10 | -11.86677 | -52.07114 | 33916 ft | 471 kts | 321° |
| 2026-04-27 06:10 | -11.81597 | -52.11340 | 33913 ft | 471 kts | 322° |
| 2026-04-27 06:11 | -11.76513 | -52.15567 | 33917 ft | 472 kts | 321° |
| 2026-04-27 06:11 | -11.72278 | -52.19088 | 33916 ft | 472 kts | 322° |
| 2026-04-27 06:12 | -11.67199 | -52.23306 | 33914 ft | 471 kts | 321° |
| 2026-04-27 06:12 | -11.62115 | -52.27529 | 33915 ft | 471 kts | 322° |
| 2026-04-27 06:13 | -11.57027 | -52.31750 | 33918 ft | 473 kts | 321° |
| 2026-04-27 06:13 | -11.51920 | -52.35987 | 33917 ft | 473 kts | 322° |
| 2026-04-27 06:14 | -11.46820 | -52.40216 | 33913 ft | 473 kts | 322° |
| 2026-04-27 06:14 | -11.41714 | -52.44447 | 33914 ft | 473 kts | 322° |
| 2026-04-27 06:15 | -11.36604 | -52.48679 | 33919 ft | 473 kts | 322° |
| 2026-04-27 06:15 | -11.31489 | -52.52914 | 33920 ft | 475 kts | 322° |
| 2026-04-27 06:16 | -11.26357 | -52.57162 | 33916 ft | 475 kts | 321° |
| 2026-04-27 06:16 | -11.21223 | -52.61406 | 33915 ft | 475 kts | 321° |
| 2026-04-27 06:17 | -11.16089 | -52.65652 | 33918 ft | 475 kts | 322° |
| 2026-04-27 06:17 | -11.10984 | -52.69870 | 33916 ft | 476 kts | 322° |
| 2026-04-27 06:18 | -11.05842 | -52.74118 | 33915 ft | 477 kts | 322° |
| 2026-04-27 06:18 | -11.00691 | -52.78371 | 33912 ft | 478 kts | 322° |
| 2026-04-27 06:19 | -10.95514 | -52.82644 | 33915 ft | 478 kts | 322° |
| 2026-04-27 06:19 | -10.90343 | -52.86907 | 33920 ft | 479 kts | 322° |
| 2026-04-27 06:20 | -10.85181 | -52.91163 | 33912 ft | 477 kts | 322° |
| 2026-04-27 06:20 | -10.80027 | -52.95411 | 33913 ft | 476 kts | 322° |
| 2026-04-27 06:21 | -10.74886 | -52.99646 | 33913 ft | 476 kts | 322° |
| 2026-04-27 06:21 | -10.69728 | -53.03892 | 33912 ft | 478 kts | 322° |
| 2026-04-27 06:22 | -10.64565 | -53.08141 | 33912 ft | 478 kts | 322° |
| 2026-04-27 06:22 | -10.59395 | -53.12394 | 33914 ft | 478 kts | 322° |
| 2026-04-27 06:23 | -10.54231 | -53.16640 | 33911 ft | 478 kts | 322° |
| 2026-04-27 06:23 | -10.49054 | -53.20895 | 33917 ft | 479 kts | 322° |
| 2026-04-27 06:24 | -10.43876 | -53.25148 | 33913 ft | 479 kts | 322° |
| 2026-04-27 06:24 | -10.38695 | -53.29402 | 33913 ft | 478 kts | 322° |
| 2026-04-27 06:25 | -10.33562 | -53.33615 | 33910 ft | 478 kts | 322° |
| 2026-04-27 06:25 | -10.28395 | -53.37854 | 33912 ft | 477 kts | 322° |
| 2026-04-27 06:26 | -10.23231 | -53.42089 | 33916 ft | 477 kts | 322° |
| 2026-04-27 06:26 | -10.18066 | -53.46322 | 33915 ft | 477 kts | 322° |
| 2026-04-27 06:27 | -10.12898 | -53.50557 | 33918 ft | 478 kts | 322° |
| 2026-04-27 06:27 | -10.07721 | -53.54797 | 33914 ft | 477 kts | 322° |
| 2026-04-27 06:28 | -10.02549 | -53.59031 | 33912 ft | 478 kts | 322° |
| 2026-04-27 06:28 | -9.97380 | -53.63260 | 33913 ft | 478 kts | 322° |
| 2026-04-27 06:29 | -9.92202 | -53.67495 | 33917 ft | 478 kts | 322° |
| 2026-04-27 06:29 | -9.87033 | -53.71722 | 33917 ft | 478 kts | 322° |
| 2026-04-27 06:30 | -9.81854 | -53.75954 | 33911 ft | 478 kts | 322° |
| 2026-04-27 06:30 | -9.76707 | -53.80159 | 33916 ft | 478 kts | 322° |
| 2026-04-27 06:31 | -9.71533 | -53.84384 | 33915 ft | 478 kts | 322° |
| 2026-04-27 06:31 | -9.66351 | -53.88613 | 33916 ft | 478 kts | 322° |
| 2026-04-27 06:32 | -9.61172 | -53.92840 | 33917 ft | 478 kts | 322° |
| 2026-04-27 06:32 | -9.55987 | -53.97069 | 33917 ft | 478 kts | 322° |
| 2026-04-27 06:33 | -9.50807 | -54.01292 | 33921 ft | 478 kts | 322° |
| 2026-04-27 06:33 | -9.45630 | -54.05511 | 33916 ft | 477 kts | 322° |
| 2026-04-27 06:34 | -9.40459 | -54.09723 | 33918 ft | 477 kts | 322° |
| 2026-04-27 06:34 | -9.35286 | -54.13936 | 33917 ft | 477 kts | 322° |
| 2026-04-27 06:35 | -9.30107 | -54.18150 | 33917 ft | 477 kts | 322° |
| 2026-04-27 06:35 | -9.24929 | -54.22365 | 33916 ft | 477 kts | 322° |
| 2026-04-27 06:36 | -9.19755 | -54.26572 | 33916 ft | 477 kts | 322° |
| 2026-04-27 06:36 | -9.14584 | -54.30777 | 33919 ft | 477 kts | 322° |
| 2026-04-27 06:37 | -9.09405 | -54.34985 | 33920 ft | 478 kts | 322° |
| 2026-04-27 06:37 | -9.04223 | -54.39196 | 33921 ft | 478 kts | 322° |
| 2026-04-27 06:38 | -8.99034 | -54.43409 | 33921 ft | 478 kts | 322° |
| 2026-04-27 06:38 | -8.93861 | -54.47608 | 33927 ft | 477 kts | 322° |
| 2026-04-27 06:39 | -8.88656 | -54.51832 | 33923 ft | 480 kts | 322° |
| 2026-04-27 06:39 | -8.83451 | -54.56053 | 33924 ft | 481 kts | 322° |
| 2026-04-27 06:40 | -8.78241 | -54.60279 | 33924 ft | 481 kts | 322° |
| 2026-04-27 06:40 | -8.73021 | -54.64511 | 33921 ft | 481 kts | 322° |
| 2026-04-27 06:41 | -8.67803 | -54.68738 | 33917 ft | 480 kts | 322° |
| 2026-04-27 06:41 | -8.62586 | -54.72963 | 33917 ft | 481 kts | 322° |
| 2026-04-27 06:42 | -8.57366 | -54.77190 | 33919 ft | 481 kts | 322° |
| 2026-04-27 06:42 | -8.52159 | -54.81405 | 33912 ft | 480 kts | 322° |
| 2026-04-27 06:43 | -8.46934 | -54.85632 | 33917 ft | 481 kts | 322° |
| 2026-04-27 06:43 | -8.41728 | -54.89842 | 33909 ft | 480 kts | 322° |
| 2026-04-27 06:44 | -8.36507 | -54.94064 | 33916 ft | 480 kts | 322° |
| 2026-04-27 06:44 | -8.31326 | -54.98252 | 33915 ft | 481 kts | 322° |
| 2026-04-27 06:45 | -8.26104 | -55.02470 | 33911 ft | 480 kts | 322° |
| 2026-04-27 06:45 | -8.20894 | -55.06678 | 33908 ft | 480 kts | 322° |
| 2026-04-27 06:46 | -8.15674 | -55.10893 | 33909 ft | 480 kts | 322° |
| 2026-04-27 06:46 | -8.10463 | -55.15099 | 33911 ft | 479 kts | 322° |
| 2026-04-27 06:47 | -8.05251 | -55.19304 | 33908 ft | 481 kts | 322° |
| 2026-04-27 06:47 | -8.00018 | -55.23525 | 33908 ft | 481 kts | 322° |
| 2026-04-27 06:48 | -7.94781 | -55.27748 | 33909 ft | 482 kts | 322° |
| 2026-04-27 06:48 | -7.89557 | -55.31958 | 33905 ft | 481 kts | 322° |
| 2026-04-27 06:49 | -7.84325 | -55.36174 | 33909 ft | 481 kts | 322° |
| 2026-04-27 06:49 | -7.79099 | -55.40383 | 33905 ft | 481 kts | 322° |
| 2026-04-27 06:50 | -7.73859 | -55.44603 | 33908 ft | 482 kts | 322° |
| 2026-04-27 06:50 | -7.68621 | -55.48819 | 33906 ft | 482 kts | 322° |
| 2026-04-27 06:51 | -7.63376 | -55.53039 | 33904 ft | 482 kts | 322° |
| 2026-04-27 06:51 | -7.58136 | -55.57254 | 33904 ft | 481 kts | 322° |
| 2026-04-27 06:52 | -7.52898 | -55.61467 | 33906 ft | 483 kts | 322° |
| 2026-04-27 06:52 | -7.47680 | -55.65661 | 33906 ft | 483 kts | 322° |
| 2026-04-27 06:53 | -7.42431 | -55.69880 | 33902 ft | 483 kts | 322° |
| 2026-04-27 06:53 | -7.37173 | -55.74105 | 33903 ft | 483 kts | 322° |
| 2026-04-27 06:54 | -7.31920 | -55.78323 | 33906 ft | 483 kts | 322° |
| 2026-04-27 06:54 | -7.26663 | -55.82544 | 33903 ft | 483 kts | 322° |
| 2026-04-27 06:55 | -7.21402 | -55.86767 | 33904 ft | 484 kts | 323° |
| 2026-04-27 06:55 | -7.16133 | -55.90995 | 33905 ft | 484 kts | 323° |
| 2026-04-27 06:56 | -7.10867 | -55.95219 | 33906 ft | 484 kts | 323° |
| 2026-04-27 06:56 | -7.05600 | -55.99443 | 33905 ft | 484 kts | 323° |
| 2026-04-27 06:57 | -7.00331 | -56.03667 | 33905 ft | 484 kts | 323° |
| 2026-04-27 06:57 | -6.95063 | -56.07889 | 33907 ft | 484 kts | 323° |
| 2026-04-27 06:58 | -6.87189 | -56.14197 | 33908 ft | 485 kts | 323° |
| 2026-04-27 06:59 | -6.81881 | -56.18448 | 33909 ft | 484 kts | 323° |
| 2026-04-27 06:59 | -6.76608 | -56.22670 | 33909 ft | 485 kts | 323° |
| 2026-04-27 07:00 | -6.71364 | -56.26867 | 33911 ft | 484 kts | 323° |
| 2026-04-27 07:00 | -6.66091 | -56.31086 | 33910 ft | 484 kts | 323° |
| 2026-04-27 07:01 | -6.60830 | -56.35295 | 33908 ft | 482 kts | 323° |
| 2026-04-27 07:01 | -6.55578 | -56.39495 | 33910 ft | 482 kts | 323° |
| 2026-04-27 07:02 | -6.51180 | -56.43011 | 33909 ft | 482 kts | 323° |
| 2026-04-27 07:02 | -6.45069 | -56.47896 | 33908 ft | 482 kts | 323° |
| 2026-04-27 07:03 | -6.40670 | -56.51411 | 33915 ft | 483 kts | 323° |
| 2026-04-27 07:03 | -6.35415 | -56.55609 | 33915 ft | 483 kts | 323° |
| 2026-04-27 07:04 | -6.30205 | -56.59770 | 33912 ft | 479 kts | 323° |
| 2026-04-27 07:04 | -6.24993 | -56.63932 | 33914 ft | 478 kts | 323° |
| 2026-04-27 07:05 | -6.19788 | -56.68087 | 33906 ft | 478 kts | 323° |
| 2026-04-27 07:05 | -6.14573 | -56.72248 | 33906 ft | 478 kts | 323° |
| 2026-04-27 07:06 | -6.09366 | -56.76403 | 33910 ft | 478 kts | 323° |
| 2026-04-27 07:06 | -6.04158 | -56.80557 | 33910 ft | 478 kts | 323° |
| 2026-04-27 07:07 | -5.98961 | -56.84701 | 33896 ft | 476 kts | 323° |
| 2026-04-27 07:07 | -5.93758 | -56.88849 | 33906 ft | 478 kts | 323° |
| 2026-04-27 07:08 | -5.88550 | -56.92999 | 33905 ft | 478 kts | 323° |
| 2026-04-27 07:08 | -5.83343 | -56.97149 | 33901 ft | 478 kts | 323° |
| 2026-04-27 07:09 | -5.78130 | -57.01302 | 33906 ft | 478 kts | 323° |
| 2026-04-27 07:09 | -5.72924 | -57.05449 | 33895 ft | 480 kts | 323° |
| 2026-04-27 07:10 | -5.67651 | -57.09647 | 33895 ft | 484 kts | 323° |
| 2026-04-27 07:10 | -5.62408 | -57.13820 | 33897 ft | 484 kts | 323° |
| 2026-04-27 07:11 | -5.57100 | -57.18045 | 33891 ft | 484 kts | 323° |
| 2026-04-27 07:11 | -5.51853 | -57.22220 | 33893 ft | 484 kts | 323° |
| 2026-04-27 07:12 | -5.46571 | -57.26422 | 33898 ft | 484 kts | 323° |
| 2026-04-27 07:12 | -5.41281 | -57.30630 | 33891 ft | 489 kts | 323° |
| 2026-04-27 07:13 | -5.35940 | -57.34877 | 33894 ft | 490 kts | 323° |
| 2026-04-27 07:13 | -5.30589 | -57.39130 | 33896 ft | 490 kts | 323° |
| 2026-04-27 07:14 | -5.25247 | -57.43377 | 33894 ft | 490 kts | 323° |
| 2026-04-27 07:14 | -5.19903 | -57.47623 | 33894 ft | 490 kts | 323° |
| 2026-04-27 07:15 | -5.14552 | -57.51874 | 33889 ft | 490 kts | 323° |
| 2026-04-27 07:15 | -5.09207 | -57.56119 | 33893 ft | 491 kts | 323° |
| 2026-04-27 07:16 | -5.03848 | -57.60375 | 33897 ft | 491 kts | 323° |
| 2026-04-27 07:16 | -4.98500 | -57.64621 | 33897 ft | 491 kts | 323° |
| 2026-04-27 07:17 | -4.93143 | -57.68874 | 33897 ft | 490 kts | 323° |
| 2026-04-27 07:17 | -4.87795 | -57.73118 | 33894 ft | 490 kts | 323° |
| 2026-04-27 07:18 | -4.82443 | -57.77364 | 33891 ft | 491 kts | 323° |
| 2026-04-27 07:18 | -4.77120 | -57.81586 | 33894 ft | 491 kts | 323° |
| 2026-04-27 07:19 | -4.71757 | -57.85839 | 33889 ft | 491 kts | 323° |
| 2026-04-27 07:19 | -4.66401 | -57.90087 | 33895 ft | 491 kts | 323° |
| 2026-04-27 07:20 | -4.61038 | -57.94338 | 33897 ft | 491 kts | 324° |
| 2026-04-27 07:20 | -4.55677 | -57.98588 | 33896 ft | 491 kts | 324° |
| 2026-04-27 07:21 | -4.50310 | -58.02841 | 33900 ft | 491 kts | 324° |
| 2026-04-27 07:21 | -4.44948 | -58.07089 | 33900 ft | 492 kts | 324° |
| 2026-04-27 07:22 | -4.39590 | -58.11334 | 33894 ft | 492 kts | 324° |
| 2026-04-27 07:22 | -4.34219 | -58.15588 | 33892 ft | 492 kts | 324° |
| 2026-04-27 07:23 | -4.28854 | -58.19836 | 33898 ft | 492 kts | 324° |
| 2026-04-27 07:23 | -4.23491 | -58.24082 | 33894 ft | 491 kts | 324° |
| 2026-04-27 07:24 | -4.18133 | -58.28324 | 33894 ft | 491 kts | 324° |
| 2026-04-27 07:24 | -4.12770 | -58.32569 | 33889 ft | 491 kts | 324° |
| 2026-04-27 07:25 | -4.07409 | -58.36811 | 33893 ft | 491 kts | 324° |
| 2026-04-27 07:25 | -4.02051 | -58.41050 | 33886 ft | 491 kts | 324° |
| 2026-04-27 07:25 | -3.99369 | -58.43171 | 33535 ft | 491 kts | 324° |
| 2026-04-27 07:26 | -3.96693 | -58.45287 | 32997 ft | 489 kts | 324° |
| 2026-04-27 07:26 | -3.94024 | -58.47399 | 32437 ft | 490 kts | 324° |
| 2026-04-27 07:26 | -3.91353 | -58.49511 | 31895 ft | 490 kts | 324° |
| 2026-04-27 07:26 | -3.88676 | -58.51628 | 31355 ft | 490 kts | 324° |
| 2026-04-27 07:27 | -3.85997 | -58.53746 | 30839 ft | 491 kts | 323° |
| 2026-04-27 07:27 | -3.83316 | -58.55866 | 30325 ft | 492 kts | 323° |
| 2026-04-27 07:27 | -3.80625 | -58.57993 | 29789 ft | 493 kts | 323° |
| 2026-04-27 07:27 | -3.77936 | -58.60138 | 29197 ft | 495 kts | 321° |
| 2026-04-27 07:28 | -3.75594 | -58.62663 | 28585 ft | 498 kts | 306° |
| 2026-04-27 07:28 | -3.73893 | -58.65686 | 28017 ft | 501 kts | 294° |
| 2026-04-27 07:28 | -3.72550 | -58.68910 | 27448 ft | 502 kts | 294° |
| 2026-04-27 07:28 | -3.71177 | -58.72134 | 26888 ft | 503 kts | 294° |
| 2026-04-27 07:29 | -3.69811 | -58.75356 | 26340 ft | 504 kts | 294° |
| 2026-04-27 07:29 | -3.68444 | -58.78584 | 25808 ft | 504 kts | 294° |
| 2026-04-27 07:29 | -3.67073 | -58.81822 | 25289 ft | 504 kts | 294° |
| 2026-04-27 07:29 | -3.65712 | -58.85041 | 24781 ft | 501 kts | 294° |
| 2026-04-27 07:30 | -3.64361 | -58.88238 | 24277 ft | 497 kts | 294° |
| 2026-04-27 07:30 | -3.63019 | -58.91413 | 23794 ft | 493 kts | 294° |
| 2026-04-27 07:30 | -3.61705 | -58.94521 | 23282 ft | 489 kts | 294° |
| 2026-04-27 07:30 | -3.60387 | -58.97642 | 22706 ft | 485 kts | 294° |
| 2026-04-27 07:31 | -3.59080 | -59.00733 | 22143 ft | 480 kts | 294° |
| 2026-04-27 07:31 | -3.57787 | -59.03794 | 21589 ft | 473 kts | 294° |
| 2026-04-27 07:31 | -3.56517 | -59.06802 | 21050 ft | 466 kts | 294° |
| 2026-04-27 07:31 | -3.55262 | -59.09773 | 20517 ft | 460 kts | 294° |
| 2026-04-27 07:32 | -3.54024 | -59.12702 | 19991 ft | 454 kts | 294° |
| 2026-04-27 07:32 | -3.52800 | -59.15598 | 19481 ft | 449 kts | 294° |
| 2026-04-27 07:32 | -3.51593 | -59.18453 | 18976 ft | 444 kts | 294° |
| 2026-04-27 07:32 | -3.50397 | -59.21282 | 18479 ft | 439 kts | 294° |
| 2026-04-27 07:33 | -3.49212 | -59.24081 | 17954 ft | 435 kts | 294° |
| 2026-04-27 07:33 | -3.48039 | -59.26853 | 17397 ft | 431 kts | 294° |
| 2026-04-27 07:33 | -3.46877 | -59.29600 | 16842 ft | 427 kts | 294° |
| 2026-04-27 07:33 | -3.45725 | -59.32321 | 16299 ft | 423 kts | 294° |
| 2026-04-27 07:34 | -3.44580 | -59.35027 | 15759 ft | 420 kts | 294° |
| 2026-04-27 07:34 | -3.43445 | -59.37706 | 15237 ft | 417 kts | 294° |
| 2026-04-27 07:34 | -3.42318 | -59.40368 | 14732 ft | 414 kts | 294° |
| 2026-04-27 07:34 | -3.41197 | -59.43016 | 14209 ft | 412 kts | 294° |
| 2026-04-27 07:35 | -3.40094 | -59.45618 | 13714 ft | 410 kts | 294° |
| 2026-04-27 07:35 | -3.38971 | -59.48268 | 13144 ft | 408 kts | 294° |
| 2026-04-27 07:35 | -3.37881 | -59.50841 | 12594 ft | 406 kts | 294° |
| 2026-04-27 07:35 | -3.36781 | -59.53438 | 12066 ft | 404 kts | 294° |
| 2026-04-27 07:36 | -3.35906 | -59.55501 | 11622 ft | 403 kts | 294° |
| 2026-04-27 07:36 | -3.34814 | -59.58077 | 11092 ft | 400 kts | 294° |
| 2026-04-27 07:36 | -3.33731 | -59.60634 | 10618 ft | 397 kts | 294° |
| 2026-04-27 07:36 | -3.32672 | -59.63136 | 10460 ft | 385 kts | 294° |
| 2026-04-27 07:37 | -3.31628 | -59.65601 | 10408 ft | 385 kts | 294° |
| 2026-04-27 07:37 | -3.30582 | -59.68068 | 10375 ft | 385 kts | 294° |
| 2026-04-27 07:37 | -3.29537 | -59.70534 | 10107 ft | 384 kts | 294° |
| 2026-04-27 07:37 | -3.28497 | -59.72985 | 9624 ft | 382 kts | 294° |
| 2026-04-27 07:38 | -3.27462 | -59.75424 | 9122 ft | 380 kts | 294° |
| 2026-04-27 07:38 | -3.26431 | -59.77856 | 8618 ft | 378 kts | 294° |
| 2026-04-27 07:38 | -3.25407 | -59.80269 | 8128 ft | 375 kts | 294° |
| 2026-04-27 07:38 | -3.24393 | -59.82661 | 7655 ft | 373 kts | 294° |
| 2026-04-27 07:39 | -3.23383 | -59.85043 | 7174 ft | 371 kts | 294° |
| 2026-04-27 07:39 | -3.22375 | -59.87418 | 6702 ft | 368 kts | 294° |
| 2026-04-27 07:39 | -3.21379 | -59.89764 | 6233 ft | 366 kts | 294° |
| 2026-04-27 07:39 | -3.20390 | -59.92097 | 5740 ft | 363 kts | 294° |
| 2026-04-27 07:40 | -3.19410 | -59.94406 | 5238 ft | 360 kts | 294° |
| 2026-04-27 07:40 | -3.18434 | -59.96710 | 4782 ft | 358 kts | 293° |
| 2026-04-27 07:40 | -3.17879 | -59.99127 | 4266 ft | 358 kts | 275° |
| 2026-04-27 07:40 | -3.17799 | -60.01606 | 3789 ft | 355 kts | 272° |
| 2026-04-27 07:41 | -3.17760 | -60.04076 | 3309 ft | 354 kts | 272° |
| 2026-04-27 07:41 | -3.17723 | -60.06500 | 3146 ft | 342 kts | 272° |
| 2026-04-27 07:41 | -3.17697 | -60.08840 | 3109 ft | 330 kts | 272° |
| 2026-04-27 07:41 | -3.17669 | -60.11089 | 3044 ft | 316 kts | 272° |
| 2026-04-27 07:42 | -3.17634 | -60.13242 | 3032 ft | 302 kts | 272° |
| 2026-04-27 07:42 | -3.17515 | -60.15279 | 3001 ft | 288 kts | 284° |
| 2026-04-27 07:42 | -3.16715 | -60.17011 | 2957 ft | 271 kts | 311° |
| 2026-04-27 07:42 | -3.15273 | -60.18121 | 2999 ft | 249 kts | 339° |
| 2026-04-27 07:43 | -3.13659 | -60.18500 | 3006 ft | 231 kts | 354° |
| 2026-04-27 07:43 | -3.12119 | -60.18634 | 3016 ft | 213 kts | 357° |
| 2026-04-27 07:43 | -3.10674 | -60.18731 | 2971 ft | 206 kts | 357° |
| 2026-04-27 07:43 | -3.09246 | -60.18823 | 2969 ft | 206 kts | 357° |
| 2026-04-27 07:44 | -3.07819 | -60.18912 | 2949 ft | 204 kts | 358° |
| 2026-04-27 07:44 | -3.06417 | -60.18933 | 2910 ft | 199 kts | 11° |
| 2026-04-27 07:44 | -3.05116 | -60.18495 | 2716 ft | 198 kts | 26° |
| 2026-04-27 07:44 | -3.04069 | -60.17610 | 2329 ft | 202 kts | 58° |
| 2026-04-27 07:45 | -3.03698 | -60.16294 | 2153 ft | 192 kts | 90° |
| 2026-04-27 07:45 | -3.03813 | -60.15042 | 1956 ft | 170 kts | 92° |
| 2026-04-27 07:45 | -3.03853 | -60.13940 | 1750 ft | 149 kts | 89° |
| 2026-04-27 07:45 | -3.03852 | -60.12939 | 1583 ft | 143 kts | 89° |
| 2026-04-27 07:46 | -3.03851 | -60.11944 | 1372 ft | 143 kts | 89° |
| 2026-04-27 07:46 | -3.03854 | -60.10942 | 1192 ft | 145 kts | 89° |
| 2026-04-27 07:46 | -3.03860 | -60.09946 | 1040 ft | 145 kts | 90° |
| 2026-04-27 07:46 | -3.03853 | -60.08934 | 849 ft | 147 kts | 87° |
| 2026-04-27 07:47 | -3.03868 | -60.07913 | 642 ft | 146 kts | 88° |
| 2026-04-27 07:47 | -3.03874 | -60.06894 | 467 ft | 148 kts | 86° |
| 2026-04-27 07:47 | -3.03859 | -60.05873 | 323 ft | 145 kts | 88° |
| 2026-04-27 07:47 | -3.03855 | -60.04997 | 299 ft | 97 kts | 91° |
| 2026-04-27 07:48 | -3.03857 | -60.04555 | 302 ft | 55 kts | 89° |
| 2026-04-27 07:48 | -3.03855 | -60.04180 | 304 ft | 54 kts | 90° |
| 2026-04-27 07:48 | -3.03852 | -60.03847 | 304 ft | 27 kts | 86° |
| 2026-04-27 07:48 | -3.03781 | -60.03769 | 305 ft | 16 kts | 359° |
| 2026-04-27 07:49 | -3.03699 | -60.03816 | 304 ft | 17 kts | 301° |
| 2026-04-27 07:49 | -3.03654 | -60.03953 | 304 ft | 26 kts | 285° |
| 2026-04-27 07:49 | -3.03595 | -60.04166 | 303 ft | 33 kts | 286° |
| 2026-04-27 07:49 | -3.03501 | -60.04322 | 304 ft | 25 kts | 319° |
| 2026-04-27 07:50 | -3.03374 | -60.04381 | 303 ft | 11 kts | 345° |
| 2026-04-27 07:50 | -3.03313 | -60.04395 | 305 ft | 7 kts | 351° |
| 2026-04-27 07:50 | -3.03263 | -60.04405 | 302 ft | 4 kts | 344° |
| 2026-04-27 07:50 | -3.03254 | -60.04408 | 304 ft | 0 kts | 344° |